Time;durP1;ratioP1;P1;durP2;ratioP2;P2;SDS_P1;SDS_P2;PMS_P1;PMS_P2;Temp;Humidity;BMP_temperature;BMP_pressure;BME280_temperature;BME280_humidity;BME280_pressure;Samples;Min_cycle;Max_cycle;Signal;HPM_P1;HPM_P2
2022/05/08 00:04:14;;;;;;;19.82;12.64;;;;;;;14.61;75.77;101337.70;4754885;55;1143137;-75
2022/05/08 00:09:19;;;;;;;22.30;11.45;;;;;;;14.48;76.39;101327.70;4701163;55;1143078;-75
2022/05/08 00:14:25;;;;;;;15.38;10.70;;;;;;;14.39;76.84;101341.21;4668956;55;1143063;-74
2022/05/08 00:19:31;;;;;;;15.10;8.85;;;;;;;14.25;77.26;101333.00;4610567;56;1143115;-73
2022/05/08 00:24:36;;;;;;;16.05;9.35;;;;;;;14.12;77.51;101332.30;4624491;56;1141019;-73
2022/05/08 00:29:42;;;;;;;18.50;10.50;;;;;;;14.13;78.28;101332.66;4590454;56;1141130;-75
2022/05/08 00:34:48;;;;;;;24.66;12.66;;;;;;;14.33;79.01;101321.77;4641409;56;1143210;-75
2022/05/08 00:39:54;;;;;;;19.37;12.85;;;;;;;14.45;78.52;101324.80;4657469;55;1149093;-74
2022/05/08 00:45:00;;;;;;;23.42;11.22;;;;;;;14.55;78.57;101327.54;4659426;55;1143265;-74
2022/05/08 00:50:08;;;;;;;18.10;10.10;;;;;;;14.66;78.34;101327.53;4676049;56;1143004;-74
2022/05/08 00:55:14;;;;;;;52.10;19.95;;;;;;;14.51;77.21;101329.63;4632544;56;1143122;-76
2022/05/08 01:00:20;;;;;;;30.95;14.65;;;;;;;14.34;77.35;101324.30;4630566;56;1143133;-73
2022/05/08 01:05:26;;;;;;;17.55;11.15;;;;;;;14.12;77.71;101326.13;4644624;55;1145019;-76
2022/05/08 01:10:34;;;;;;;11.38;8.55;;;;;;;14.16;78.75;101320.45;4685835;55;1148184;-74
2022/05/08 01:15:45;;;;;;;14.00;9.20;;;;;;;14.21;78.54;101328.05;4686857;55;1140955;-74
2022/05/08 01:20:51;;;;;;;15.50;9.63;;;;;;;14.03;77.90;101324.58;4706974;55;1150607;-73
2022/05/08 01:25:58;;;;;;;17.10;9.75;;;;;;;13.99;79.35;101328.44;4671297;55;1141753;-75
2022/05/08 01:31:04;;;;;;;15.38;9.66;;;;;;;13.99;79.35;101328.44;4609806;56;1141038;-76
2022/05/08 01:36:10;;;;;;;16.20;9.60;;;;;;;14.11;79.78;101317.78;4629267;56;1141115;-76
2022/05/08 01:41:17;;;;;;;19.45;10.08;;;;;;;14.23;79.74;101322.13;4636566;55;1140916;-76
2022/05/08 01:46:22;;;;;;;14.66;9.46;;;;;;;14.25;79.39;101319.70;4605748;56;1262921;-73
2022/05/08 01:51:28;;;;;;;20.00;10.60;;;;;;;14.18;78.64;101325.66;4592834;56;1143081;-73
2022/05/08 01:56:34;;;;;;;17.33;11.53;;;;;;;14.14;79.03;101332.18;4593070;57;1143156;-76
2022/05/08 02:01:40;;;;;;;23.78;13.76;;;;;;;13.99;78.33;101335.57;4627485;57;1143295;-73
2022/05/08 02:06:46;;;;;;;29.48;14.38;;;;;;;13.89;79.13;101340.78;4627762;57;1143142;-75
2022/05/08 02:11:52;;;;;;;20.98;12.52;;;;;;;13.85;79.71;101346.45;4627465;57;1143123;-74
2022/05/08 02:16:58;;;;;;;15.65;10.15;;;;;;;13.86;80.57;101339.68;4602388;56;1143123;-72
2022/05/08 02:22:05;;;;;;;13.12;8.90;;;;;;;13.87;81.03;101333.88;4610775;57;1143175;-74
2022/05/08 02:27:10;;;;;;;11.40;8.73;;;;;;;13.83;80.72;101333.27;4676338;56;1141023;-74
2022/05/08 02:32:18;;;;;;;16.97;10.58;;;;;;;13.77;81.10;101336.88;4656320;56;1141013;-75
2022/05/08 02:37:24;;;;;;;18.27;10.30;;;;;;;13.60;81.09;101334.19;4552467;57;1143008;-72
2022/05/08 02:42:30;;;;;;;14.77;10.10;;;;;;;13.53;81.75;101340.97;4616235;56;1147545;-75
2022/05/08 02:47:37;;;;;;;14.30;10.40;;;;;;;13.54;82.48;101343.98;4608158;57;1143001;-73
2022/05/08 02:52:44;;;;;;;12.88;10.34;;;;;;;13.72;83.36;101346.56;4572096;57;1143095;-74
2022/05/08 03:03:21;;;;;;;14.16;10.88;;;;;;;13.87;83.20;101343.19;4544436;58;1143137;-76
2022/05/08 03:08:27;;;;;;;14.47;10.00;;;;;;;13.91;83.08;101348.13;4551449;57;1143141;-74
2022/05/08 03:13:42;;;;;;;17.80;9.75;;;;;;;13.87;82.55;101341.38;4552589;57;1142961;-75
2022/05/08 03:18:48;;;;;;;12.83;9.93;;;;;;;13.92;82.93;101337.00;4500016;57;1146624;-76
2022/05/08 03:23:54;;;;;;;15.93;10.23;;;;;;;13.96;83.28;101330.00;4590228;56;1141009;-73
2022/05/08 03:29:02;;;;;;;12.87;9.58;;;;;;;13.93;82.90;101335.56;4591861;56;1174337;-76
2022/05/08 03:34:09;;;;;;;19.07;11.18;;;;;;;13.87;82.30;101344.52;4551872;56;1140999;-74
2022/05/08 03:39:15;;;;;;;15.25;10.68;;;;;;;13.77;82.24;101335.06;4557573;56;1142966;-75
2022/05/08 03:44:20;;;;;;;17.82;9.23;;;;;;;13.75;82.92;101339.65;4583466;56;1142957;-75
2022/05/08 03:49:26;;;;;;;13.35;9.10;;;;;;;13.78;83.54;101330.59;4581799;56;1148149;-76
2022/05/08 03:54:32;;;;;;;14.55;10.35;;;;;;;13.80;83.30;101330.84;4594002;57;1141155;-75
2022/05/08 03:59:38;;;;;;;15.43;9.33;;;;;;;13.91;83.74;101337.48;4598003;56;1142998;-76
2022/05/08 04:04:43;;;;;;;11.38;9.15;;;;;;;13.96;83.38;101352.61;4534465;57;1140982;-75
2022/05/08 04:09:51;;;;;;;17.17;9.53;;;;;;;13.66;82.72;101374.94;4598508;56;1141059;-75
2022/05/08 04:14:59;;;;;;;14.57;9.67;;;;;;;13.38;83.17;101378.86;4634839;56;1149968;-74
2022/05/08 04:20:07;;;;;;;13.25;10.40;;;;;;;13.20;84.07;101385.55;4552834;57;1262933;-74
2022/05/08 04:25:14;;;;;;;20.90;12.60;;;;;;;13.13;84.77;101402.41;4512753;57;1143107;-76
2022/05/08 04:30:20;;;;;;;14.40;10.80;;;;;;;13.06;85.57;101402.95;4532448;57;1143187;-74
2022/05/08 04:35:26;;;;;;;13.13;9.97;;;;;;;13.00;86.34;101404.24;4593060;57;1143128;-75
2022/05/08 04:40:33;;;;;;;15.93;11.07;;;;;;;13.00;86.66;101398.94;4643411;55;1141012;-75
2022/05/08 04:45:39;;;;;;;14.83;9.70;;;;;;;13.04;86.99;101400.41;4620194;56;1143089;-76
2022/05/08 04:50:45;;;;;;;11.97;9.33;;;;;;;13.13;87.17;101405.06;4675243;56;1141667;-76
2022/05/08 04:55:50;;;;;;;11.67;9.07;;;;;;;13.19;87.36;101402.44;4734069;55;1142762;-76
2022/05/08 05:01:01;;;;;;;12.07;9.18;;;;;;;13.12;87.72;101410.00;4756684;55;1141001;-74
2022/05/08 05:06:07;;;;;;;13.60;10.80;;;;;;;13.14;87.92;101420.00;4736539;55;1140956;-74
2022/05/08 05:11:12;;;;;;;16.00;9.93;;;;;;;13.17;88.31;101411.84;4755264;55;1143009;-74
2022/05/08 05:16:18;;;;;;;14.85;11.53;;;;;;;13.25;88.40;101422.77;4685366;55;1182467;-76
2022/05/08 05:21:25;;;;;;;12.87;10.57;;;;;;;13.27;88.67;101427.97;4673938;56;1152633;-76
2022/05/08 05:26:31;;;;;;;16.55;10.38;;;;;;;13.24;89.25;101436.16;4685559;56;1146537;-76
2022/05/08 05:31:36;;;;;;;17.80;10.67;;;;;;;13.29;89.17;101434.02;4664609;55;1183460;-74
2022/05/08 05:36:42;;;;;;;12.57;9.23;;;;;;;13.45;89.42;101441.67;4684862;56;1143284;-76
2022/05/08 05:41:48;;;;;;;10.65;8.78;;;;;;;13.45;89.25;101449.16;4729186;55;1141047;-75
2022/05/08 05:52:18;;;;;;;8.85;6.85;;;;;;;13.53;88.75;101456.58;4695504;55;1141168;-74
2022/05/08 05:57:23;;;;;;;9.58;6.92;;;;;;;13.61;88.85;101466.13;4594979;56;1139181;-73
2022/05/08 06:02:29;;;;;;;16.23;8.17;;;;;;;13.64;88.45;101471.23;4591431;56;1147650;-73
2022/05/08 06:07:37;;;;;;;10.40;6.92;;;;;;;13.62;87.76;101475.33;4590672;56;1141041;-76
2022/05/08 06:12:43;;;;;;;10.58;6.32;;;;;;;13.66;87.69;101486.10;4590204;56;1141072;-73
2022/05/08 06:17:50;;;;;;;7.24;6.42;;;;;;;13.72;86.86;101487.47;4644713;55;1141157;-74
2022/05/08 06:22:55;;;;;;;7.93;6.57;;;;;;;13.70;86.39;101490.23;4677466;55;1138933;-76
2022/05/08 06:28:03;;;;;;;8.70;6.70;;;;;;;13.69;86.31;101493.86;4748412;55;1139499;-76
2022/05/08 06:33:08;;;;;;;9.55;6.90;;;;;;;13.66;85.92;101490.09;4757998;55;1139391;-74
2022/05/08 06:38:15;;;;;;;7.47;6.07;;;;;;;13.63;85.92;101496.95;4756376;55;1141183;-75
2022/05/08 06:43:21;;;;;;;10.23;6.97;;;;;;;13.64;85.71;101497.81;4639265;56;1167928;-73
2022/05/08 06:48:27;;;;;;;7.50;6.35;;;;;;;13.68;85.51;101503.27;4614920;56;1141025;-74
2022/05/08 06:53:34;;;;;;;9.23;7.53;;;;;;;13.68;85.66;101503.27;4641894;56;1139058;-76
2022/05/08 07:04:06;;;;;;;11.95;7.58;;;;;;;13.67;85.76;101502.91;4681000;55;1141025;-77
2022/05/08 07:09:16;;;;;;;12.04;7.64;;;;;;;13.72;85.68;101502.09;4650276;56;1141060;-74
2022/05/08 07:14:22;;;;;;;12.93;10.27;;;;;;;13.75;86.00;101502.34;4659046;55;1141296;-75
2022/05/08 07:19:28;;;;;;;9.30;6.47;;;;;;;13.69;85.89;101515.13;4614415;56;1143068;-75
2022/05/08 07:24:34;;;;;;;13.40;11.63;;;;;;;13.66;86.29;101503.38;4615912;56;1138983;-74
2022/05/08 07:29:44;;;;;;;12.68;8.68;;;;;;;13.66;86.41;101511.84;4679174;55;1143127;-77
2022/05/08 07:40:14;;;;;;;;;;;;;;;13.76;87.62;101514.16;4675160;55;1143608;-74
2022/05/08 07:45:21;;;;;;;6.53;5.83;;;;;;;13.85;87.03;101521.47;4740505;56;976981;-76
2022/05/08 07:50:27;;;;;;;8.83;6.37;;;;;;;13.90;86.47;101521.13;4636241;55;1136924;-74
2022/05/08 07:55:33;;;;;;;7.28;4.70;;;;;;;13.86;86.30;101525.83;4675537;55;1139020;-75
2022/05/08 08:00:38;;;;;;;7.10;4.87;;;;;;;13.87;87.10;101528.85;4657526;55;1148343;-75
2022/05/08 08:05:45;;;;;;;6.75;5.12;;;;;;;13.97;87.66;101536.97;4661193;56;1261051;-74
2022/05/08 08:10:53;;;;;;;10.36;5.68;;;;;;;14.01;87.56;101527.81;4631614;56;1138849;-73
2022/05/08 08:16:00;;;;;;;6.40;4.48;;;;;;;14.03;86.51;101532.53;4658548;56;1141160;-71
2022/05/08 08:21:07;;;;;;;9.08;5.87;;;;;;;14.06;86.03;101528.28;4734815;55;1139019;-76
2022/05/08 08:26:14;;;;;;;4.54;4.06;;;;;;;14.08;86.77;101529.02;4720414;55;1138948;-73
2022/05/08 08:31:20;;;;;;;3.75;3.45;;;;;;;14.30;87.24;101525.58;4637144;55;1138891;-76
2022/05/08 08:36:26;;;;;;;5.97;3.10;;;;;;;14.61;86.90;101530.72;4752223;55;1147693;-76
2022/05/08 08:41:36;;;;;;;2.05;1.95;;;;;;;14.97;85.31;101530.97;4627625;55;1148727;-74
2022/05/08 08:52:08;;;;;;;4.95;3.88;;;;;;;15.27;79.84;101527.65;4731084;55;1138960;-77
2022/05/08 08:57:14;;;;;;;2.85;2.52;;;;;;;15.34;78.54;101520.34;4675854;56;1139096;-77
2022/05/08 09:02:22;;;;;;;3.92;3.60;;;;;;;15.63;79.08;101530.47;4677710;56;1139059;-75
2022/05/08 09:07:43;;;;;;;2.83;2.62;;;;;;;15.88;77.48;101539.96;4607447;55;1139327;-75
2022/05/08 09:13:02;;;;;;;4.17;2.25;;;;;;;16.15;77.25;101538.48;4628936;55;1138942;-77
2022/05/08 09:18:11;;;;;;;4.85;2.67;;;;;;;16.32;72.30;101530.37;4625255;56;1138982;-77
2022/05/08 09:23:19;;;;;;;5.15;2.87;;;;;;;16.44;73.83;101537.80;4626342;56;1139126;-75
2022/05/08 09:28:42;;;;;;;3.65;2.35;;;;;;;16.59;69.64;101533.81;4631411;56;1185901;-76
2022/05/08 09:33:51;;;;;;;2.65;2.45;;;;;;;16.70;70.14;101533.75;4614220;56;1138943;-76
2022/05/08 09:38:59;;;;;;;3.72;2.62;;;;;;;16.95;70.25;101529.78;4595870;55;1138945;-75
2022/05/08 09:44:17;;;;;;;3.60;2.27;;;;;;;17.16;68.89;101532.36;4657193;55;1139175;-76
2022/05/08 09:49:26;;;;;;;1.80;1.55;;;;;;;17.36;67.00;101527.42;4637396;56;1139127;-76
2022/05/08 09:54:33;;;;;;;2.98;2.08;;;;;;;17.58;61.70;101524.96;4666848;56;1139236;-76
2022/05/08 09:59:38;;;;;;;4.55;1.90;;;;;;;17.69;65.21;101518.69;4671210;55;1138957;-76
2022/05/08 10:04:44;;;;;;;3.37;2.10;;;;;;;17.94;63.27;101512.75;4691383;55;1139165;-76
2022/05/08 10:15:35;;;;;;;2.08;1.70;;;;;;;18.32;65.26;101509.67;4681947;55;1138837;-75
2022/05/08 10:21:12;;;;;;;2.77;1.75;;;;;;;18.55;58.44;101511.84;4541405;57;1139088;-76
2022/05/08 10:26:24;;;;;;;2.74;1.82;;;;;;;18.63;60.19;101510.30;4533078;57;1139142;-77
2022/05/08 10:31:57;;;;;;;1.88;1.44;;;;;;;18.94;59.52;101500.99;4443355;59;1138940;-76
2022/05/08 10:37:22;;;;;;;1.40;1.30;;;;;;;18.98;59.35;101497.00;4592116;56;1148520;-76
2022/05/08 10:42:40;;;;;;;6.12;1.72;;;;;;;18.85;56.21;101496.51;4620498;56;1138869;-75
2022/05/08 10:47:43;;;;;;;4.17;1.62;;;;;;;19.01;55.21;101491.34;4620607;56;1138868;-76
2022/05/08 10:52:50;;;;;;;4.00;1.92;;;;;;;19.38;55.05;101492.59;4620389;56;1179131;-75
2022/05/08 10:57:58;;;;;;;5.97;2.10;;;;;;;19.53;56.60;101483.05;4631896;56;1138974;-75
2022/05/08 11:03:05;;;;;;;2.85;2.05;;;;;;;19.74;54.20;101481.37;4682210;56;1138964;-76
2022/05/08 11:08:13;;;;;;;3.25;2.00;;;;;;;19.98;50.38;101485.61;4648481;56;1138908;-76
2022/05/08 11:13:19;;;;;;;8.18;2.27;;;;;;;20.08;53.64;101474.76;4659607;55;1138924;-76
2022/05/08 11:18:27;;;;;;;1.87;1.77;;;;;;;20.16;51.07;101472.14;4674840;55;1147830;-76
2022/05/08 11:23:37;;;;;;;1.47;1.37;;;;;;;20.14;51.16;101471.95;4612394;56;1147102;-76
2022/05/08 11:29:00;;;;;;;4.25;1.75;;;;;;;20.18;50.32;101472.80;4717342;55;1138803;-73
2022/05/08 11:39:33;;;;;;;3.83;1.80;;;;;;;20.61;53.39;101468.39;4679752;55;1138889;-74
2022/05/08 11:44:39;;;;;;;1.70;1.60;;;;;;;20.54;51.31;101468.67;4693921;55;1147449;-73
2022/05/08 11:49:48;;;;;;;1.65;1.40;;;;;;;20.62;51.20;101472.77;4636570;55;1138971;-74
2022/05/08 11:55:01;;;;;;;2.12;1.47;;;;;;;20.74;51.14;101467.43;4637194;55;1148455;-74
2022/05/08 12:00:13;;;;;;;3.47;1.95;;;;;;;20.71;51.29;101465.91;4631666;55;1138935;-73
2022/05/08 12:05:23;;;;;;;1.87;1.30;;;;;;;20.56;48.58;101465.33;4661708;55;1139024;-74
2022/05/08 12:10:40;;;;;;;3.35;1.50;;;;;;;20.42;49.04;101467.27;4572193;55;1147829;-74
2022/05/08 12:15:46;;;;;;;3.52;1.60;;;;;;;20.49;50.44;101457.55;4563881;57;1138833;-73
2022/05/08 12:20:53;;;;;;;1.72;1.35;;;;;;;20.58;48.61;101467.36;4597824;57;1138960;-74
2022/05/08 12:25:59;;;;;;;1.92;1.48;;;;;;;20.33;49.23;101461.81;4624314;55;1139028;-73
2022/05/08 12:31:09;;;;;;;1.40;1.00;;;;;;;20.32;49.02;101460.13;4680154;55;1139109;-74
2022/05/08 12:36:13;;;;;;;1.34;1.20;;;;;;;20.22;45.32;101463.43;4670776;56;1138910;-75
2022/05/08 12:41:19;;;;;;;1.88;1.68;;;;;;;20.18;49.26;101460.71;4675691;55;1143737;-76
2022/05/08 12:46:25;;;;;;;3.17;1.22;;;;;;;20.30;48.12;101457.28;4677042;55;1170076;-75
2022/05/08 12:51:35;;;;;;;4.80;1.67;;;;;;;20.36;46.99;101452.12;4601775;56;1139109;-75
2022/05/08 12:56:40;;;;;;;6.42;1.50;;;;;;;20.61;48.27;101449.07;4618315;55;1138913;-75
2022/05/08 13:01:48;;;;;;;3.66;1.38;;;;;;;20.78;46.71;101447.26;4635463;55;1139245;-75
2022/05/08 13:06:54;;;;;;;4.00;1.64;;;;;;;20.66;43.74;101442.69;4640918;55;1139087;-75
2022/05/08 13:12:03;;;;;;;1.95;1.00;;;;;;;20.48;43.62;101441.93;4687670;55;1139070;-76
2022/05/08 13:17:09;;;;;;;1.82;1.37;;;;;;;20.44;42.01;101443.78;4698988;55;1139129;-75
2022/05/08 13:22:15;;;;;;;1.76;1.40;;;;;;;20.41;44.11;101442.75;4637423;55;1147408;-75
2022/05/08 13:27:21;;;;;;;1.50;1.20;;;;;;;20.60;45.48;101430.41;4568475;56;1138966;-75
2022/05/08 13:32:27;;;;;;;3.62;1.40;;;;;;;20.92;45.14;101439.09;4623073;56;1138999;-75
2022/05/08 13:37:33;;;;;;;6.50;1.57;;;;;;;20.92;45.14;101439.09;4603846;56;1138906;-76
2022/05/08 13:42:38;;;;;;;2.67;0.90;;;;;;;21.02;45.09;101439.78;4602990;56;1138954;-75
2022/05/08 13:47:45;;;;;;;2.96;1.48;;;;;;;21.15;41.93;101432.08;4642465;56;1146199;-76
2022/05/08 13:52:51;;;;;;;3.37;1.25;;;;;;;20.99;41.54;101436.08;4555813;57;1139106;-75
2022/05/08 13:57:57;;;;;;;5.25;1.70;;;;;;;21.05;43.12;101423.33;4547022;58;1139150;-75
2022/05/08 14:03:05;;;;;;;4.65;1.55;;;;;;;21.41;44.05;101426.58;4530835;57;1182021;-75
2022/05/08 14:08:12;;;;;;;6.05;1.70;;;;;;;21.49;39.88;101425.25;4559921;57;1139090;-75
2022/05/08 14:13:17;;;;;;;3.92;2.02;;;;;;;21.54;42.26;101430.95;4537722;57;1138962;-76
2022/05/08 14:18:24;;;;;;;5.35;2.25;;;;;;;21.88;44.04;101432.12;4564225;57;1144222;-75
2022/05/08 14:23:30;;;;;;;5.62;2.22;;;;;;;22.16;43.47;101423.67;4623404;56;1138954;-75
2022/05/08 14:28:36;;;;;;;4.62;1.87;;;;;;;22.21;42.70;101432.09;4639339;56;1138959;-75
2022/05/08 14:39:05;;;;;;;7.15;1.90;;;;;;;22.03;43.25;101427.75;4660672;55;1138960;-75
2022/05/08 14:44:11;;;;;;;3.62;1.46;;;;;;;21.95;43.14;101435.83;4678215;55;1138986;-76
2022/05/08 14:49:17;;;;;;;2.87;1.75;;;;;;;21.83;41.69;101431.81;4635159;56;1220666;-75
2022/05/08 14:54:23;;;;;;;7.72;1.70;;;;;;;21.67;41.83;101430.47;4635692;55;1138927;-76
2022/05/08 14:59:28;;;;;;;7.90;1.95;;;;;;;21.48;40.73;101432.99;4673096;55;1139005;-76
2022/05/08 15:04:34;;;;;;;7.30;3.00;;;;;;;21.41;42.13;101431.96;4640824;55;1138913;-75
2022/05/08 15:09:41;;;;;;;8.80;3.62;;;;;;;21.60;42.54;101427.60;4607391;55;1139119;-75
2022/05/08 15:14:47;;;;;;;5.00;2.50;;;;;;;21.91;43.35;101421.52;4662686;55;1139156;-76
2022/05/08 15:19:53;;;;;;;7.72;2.08;;;;;;;22.09;40.26;101430.27;4618018;55;1254215;-76
2022/05/08 15:24:58;;;;;;;8.25;2.20;;;;;;;22.03;38.01;101424.21;4709568;55;1138989;-76
2022/05/08 15:30:05;;;;;;;5.95;2.20;;;;;;;21.85;38.37;101434.30;4685107;55;1138913;-75
2022/05/08 15:35:11;;;;;;;6.62;2.20;;;;;;;21.97;40.07;101417.64;4672427;55;1254627;-76
2022/05/08 15:40:17;;;;;;;7.95;2.35;;;;;;;22.08;39.14;101439.37;4670291;55;1138876;-75
2022/05/08 15:45:24;;;;;;;3.32;2.02;;;;;;;22.20;38.48;101433.94;4630967;55;1148456;-76
2022/05/08 15:50:30;;;;;;;10.30;2.60;;;;;;;22.17;37.44;101443.71;4724568;55;1138976;-76
2022/05/08 15:55:36;;;;;;;11.40;3.40;;;;;;;22.23;37.63;101451.63;4676933;56;1141078;-76
2022/05/08 16:00:45;;;;;;;7.65;3.33;;;;;;;22.22;35.58;101449.94;4663484;56;1141097;-75
2022/05/08 16:05:52;;;;;;;7.55;2.70;;;;;;;22.07;36.01;101452.50;4704011;55;1138879;-76
2022/05/08 16:10:58;;;;;;;6.33;2.22;;;;;;;22.03;35.96;101464.63;4673031;55;1138925;-75
2022/05/08 16:26:52;;;;;;;8.13;3.12;;;;;;;21.89;34.37;101467.97;4635156;56;1139050;-76
2022/05/08 16:31:57;;;;;;;10.18;3.02;;;;;;;21.75;34.10;101471.69;4619909;56;1139200;-74
2022/05/08 16:37:04;;;;;;;3.48;2.12;;;;;;;21.63;34.37;101477.58;4461267;57;1141076;-75
2022/05/08 16:42:09;;;;;;;7.87;2.45;;;;;;;21.48;32.85;101476.05;4619301;55;1139026;-74
2022/05/08 16:47:16;;;;;;;14.60;4.06;;;;;;;21.42;34.19;101482.09;4511523;57;1146123;-75
2022/05/08 16:52:21;;;;;;;10.68;3.12;;;;;;;21.46;34.16;101482.11;4537717;57;1141066;-76
2022/05/08 16:57:27;;;;;;;15.70;3.40;;;;;;;21.36;34.67;101491.69;4479072;57;1141067;-75
2022/05/08 17:02:33;;;;;;;19.77;5.83;;;;;;;21.34;35.51;101496.89;4517589;57;1141115;-74
2022/05/08 17:07:47;;;;;;;19.98;11.30;;;;;;;21.27;36.07;101498.05;4466389;57;1141039;-75
2022/05/08 17:12:48;;;;;;;12.95;3.58;;;;;;;21.15;35.73;101502.53;4540428;56;1143292;-76
2022/05/08 17:17:54;;;;;;;12.58;3.34;;;;;;;21.05;36.10;101505.36;4496492;56;1258465;-75
2022/05/08 17:23:00;;;;;;;19.17;6.60;;;;;;;20.90;36.21;101506.48;4543172;57;1141026;-75
2022/05/08 17:33:30;;;;;;;17.23;6.15;;;;;;;20.49;35.61;101519.37;4531827;57;1141030;-75
2022/05/08 17:38:36;;;;;;;14.25;5.78;;;;;;;20.36;36.01;101519.80;4555354;57;1141218;-75
2022/05/08 17:43:43;;;;;;;11.40;4.50;;;;;;;20.26;36.44;101529.28;4564887;57;1141200;-75
2022/05/08 17:48:49;;;;;;;13.65;4.53;;;;;;;20.19;36.78;101534.92;4586640;56;1141220;-75
2022/05/08 17:53:56;;;;;;;15.16;4.50;;;;;;;19.99;37.30;101533.45;4698897;56;1141075;-75
2022/05/08 17:59:04;;;;;;;8.73;3.72;;;;;;;19.86;37.90;101544.55;4678955;56;1140981;-71
2022/05/08 18:09:32;;;;;;;12.70;3.90;;;;;;;19.57;37.64;101547.97;4681276;56;1141086;-73
2022/05/08 18:14:39;;;;;;;9.60;3.60;;;;;;;19.37;37.48;101553.95;4656768;56;1140978;-72
2022/05/08 18:19:46;;;;;;;13.10;3.90;;;;;;;19.11;37.86;101565.02;4658056;56;1139155;-72
2022/05/08 18:24:52;;;;;;;11.24;4.08;;;;;;;19.00;38.08;101570.58;4636863;56;1144280;-75
2022/05/08 18:29:58;;;;;;;8.60;4.15;;;;;;;18.88;38.17;101582.84;4652623;56;1140980;-74
2022/05/08 18:35:04;;;;;;;9.68;4.25;;;;;;;18.80;38.55;101594.77;4658916;56;1138962;-75
2022/05/08 18:40:13;;;;;;;17.17;6.47;;;;;;;18.69;38.43;101604.34;4659886;56;1138993;-75
2022/05/08 18:45:22;;;;;;;18.23;5.07;;;;;;;18.54;38.40;101609.28;4655861;56;1141113;-75
2022/05/08 18:50:29;;;;;;;12.50;5.40;;;;;;;18.45;38.52;101616.00;4620722;57;1141169;-76
2022/05/08 18:55:35;;;;;;;18.40;8.44;;;;;;;18.34;38.33;101626.35;4628970;56;1141074;-75
2022/05/08 19:00:40;;;;;;;16.93;7.95;;;;;;;18.20;38.16;101637.00;4627298;56;1141053;-75
2022/05/08 19:05:47;;;;;;;25.90;10.28;;;;;;;18.03;38.16;101640.37;4639313;56;1141038;-76
2022/05/08 19:10:54;;;;;;;22.15;10.28;;;;;;;17.98;38.48;101647.16;4692561;56;1143181;-75
2022/05/08 19:15:59;;;;;;;19.85;7.83;;;;;;;17.86;38.21;101655.81;4690074;56;1143076;-75
2022/05/08 19:21:05;;;;;;;19.90;7.55;;;;;;;17.65;38.53;101666.60;4703273;56;1141133;-75
2022/05/08 19:26:11;;;;;;;25.88;8.88;;;;;;;17.62;38.96;101672.19;4687458;56;1140971;-75
2022/05/08 19:42:06;;;;;;;18.57;9.40;;;;;;;17.56;39.54;101692.33;5063826;58;1140945;-76
2022/05/08 19:47:18;;;;;;;21.93;7.80;;;;;;;17.43;39.60;101693.52;5063670;57;1141167;-75
2022/05/08 19:52:26;;;;;;;19.40;6.63;;;;;;;17.31;39.64;101698.11;5028028;57;1141076;-75
2022/05/08 19:57:33;;;;;;;15.40;6.00;;;;;;;17.19;39.69;101701.86;5064812;57;1141604;-75
2022/05/08 20:02:41;;;;;;;18.17;7.03;;;;;;;17.07;40.06;101704.27;5168512;56;1140996;-74
2022/05/08 20:07:47;;;;;;;18.00;6.10;;;;;;;17.01;40.37;101708.30;5208251;56;1141042;-76
2022/05/08 20:12:53;;;;;;;24.30;9.23;;;;;;;16.88;40.50;101721.86;5213497;56;1141065;-74
2022/05/08 20:17:59;;;;;;;13.83;3.93;;;;;;;16.66;40.81;101723.80;5181549;56;1141003;-73
2022/05/08 20:23:05;;;;;;;11.43;4.47;;;;;;;16.38;41.37;101727.41;5234076;56;1141125;-74
2022/05/08 20:28:10;;;;;;;13.93;4.27;;;;;;;16.26;41.86;101744.93;5175446;56;1141624;-70
2022/05/08 20:33:18;;;;;;;17.10;3.40;;;;;;;16.13;42.35;101752.61;5161086;56;1141111;-72
2022/05/08 20:38:24;;;;;;;5.93;2.93;;;;;;;15.97;42.75;101763.31;5171695;56;1141165;-70
2022/05/08 20:43:30;;;;;;;11.63;3.60;;;;;;;15.79;43.57;101775.81;5194304;56;1138998;-72
2022/05/08 20:48:36;;;;;;;10.73;3.40;;;;;;;15.62;44.41;101782.11;5216761;56;1141050;-70
2022/05/08 20:53:42;;;;;;;7.17;3.77;;;;;;;15.20;46.73;101787.13;5161342;57;1141168;-70
2022/05/08 20:58:48;;;;;;;14.37;3.90;;;;;;;15.20;46.73;101787.13;5197731;56;1139024;-71
2022/05/08 21:03:54;;;;;;;7.20;3.07;;;;;;;14.97;47.93;101804.85;5249156;56;1141141;-73
2022/05/08 21:09:02;;;;;;;8.77;3.37;;;;;;;14.64;49.38;101806.08;5248422;56;1138993;-71
2022/05/08 21:14:09;;;;;;;6.13;3.73;;;;;;;14.45;51.36;101819.03;5249103;56;1138986;-68
2022/05/08 21:19:14;;;;;;;5.00;3.17;;;;;;;14.33;52.07;101820.75;5249073;56;1139017;-70
2022/05/08 21:24:21;;;;;;;6.77;3.13;;;;;;;14.20;53.17;101828.77;5249089;56;1139024;-72
2022/05/08 21:29:26;;;;;;;6.10;3.97;;;;;;;14.06;54.31;101836.86;5202274;56;1139073;-73
2022/05/08 21:34:32;;;;;;;8.17;3.73;;;;;;;13.85;56.15;101848.56;5162350;56;1139003;-73
2022/05/08 21:39:38;;;;;;;27.58;4.80;;;;;;;13.61;58.09;101856.89;5161932;56;1139026;-71
2022/05/08 21:44:44;;;;;;;11.10;5.50;;;;;;;13.43;59.09;101868.81;5216935;56;1140454;-75
2022/05/08 21:49:52;;;;;;;10.23;5.97;;;;;;;13.14;61.45;101875.55;5248514;56;1141302;-74
2022/05/08 21:54:59;;;;;;;10.17;6.20;;;;;;;12.99;63.07;101885.39;5248054;56;1141036;-73
2022/05/08 22:00:11;;;;;;;11.33;8.37;;;;;;;12.79;64.25;101887.67;5195960;56;1141221;-76
2022/05/08 22:05:19;;;;;;;12.20;8.83;;;;;;;12.58;63.71;101892.08;5085676;57;1141041;-70
2022/05/08 22:10:25;;;;;;;14.93;9.30;;;;;;;12.41;64.45;101895.42;5079881;58;1139024;-74
2022/05/08 22:15:30;;;;;;;11.73;7.73;;;;;;;12.23;67.16;101894.30;5079912;58;1139235;-71
2022/05/08 22:20:36;;;;;;;19.30;7.20;;;;;;;12.03;66.68;101902.66;5080096;58;1139010;-73
2022/05/08 22:25:44;;;;;;;10.77;7.77;;;;;;;11.94;68.59;101901.89;5079993;58;1138967;-73
2022/05/08 22:30:53;;;;;;;14.60;8.93;;;;;;;11.82;68.22;101903.97;5149236;56;1139083;-74
2022/05/08 22:35:58;;;;;;;15.67;9.17;;;;;;;11.67;68.07;101907.04;5164240;57;1138926;-75
2022/05/08 22:41:04;;;;;;;15.18;9.05;;;;;;;11.55;68.59;101917.91;5163860;57;1139044;-76
2022/05/08 22:46:10;;;;;;;11.20;8.77;;;;;;;11.50;69.24;101918.64;5163749;57;1138915;-74
2022/05/08 22:51:16;;;;;;;11.53;8.43;;;;;;;11.45;69.65;101926.03;5163689;57;1139090;-73
2022/05/08 22:56:22;;;;;;;11.27;8.07;;;;;;;11.51;69.74;101928.30;5163889;57;1139519;-74
2022/05/08 23:01:27;;;;;;;11.47;9.17;;;;;;;11.46;69.48;101929.03;5167918;56;1138924;-76
2022/05/08 23:06:33;;;;;;;13.80;9.53;;;;;;;11.46;69.51;101935.65;5248347;56;1139023;-75
2022/05/08 23:11:39;;;;;;;13.13;8.80;;;;;;;11.47;69.89;101944.45;5248260;56;1139370;-74
2022/05/08 23:16:44;;;;;;;14.70;9.63;;;;;;;11.35;69.88;101939.88;5248214;56;1138922;-73
2022/05/08 23:21:50;;;;;;;14.30;8.83;;;;;;;11.30;69.93;101941.49;5189476;56;1138934;-76
2022/05/08 23:26:57;;;;;;;13.40;9.17;;;;;;;11.33;70.04;101941.76;5035575;58;1138991;-76
2022/05/08 23:32:03;;;;;;;14.67;9.87;;;;;;;11.28;70.43;101938.92;5248393;56;1139027;-76
2022/05/08 23:37:09;;;;;;;14.77;9.60;;;;;;;11.28;70.50;101947.34;5248157;56;1138961;-74
2022/05/08 23:42:15;;;;;;;13.07;9.97;;;;;;;11.06;71.53;101947.70;5248448;56;1136925;-75
2022/05/08 23:47:21;;;;;;;19.60;9.30;;;;;;;11.06;71.53;101947.70;5268335;56;21155;-74
2022/05/08 23:52:28;;;;;;;12.60;8.83;;;;;;;10.99;71.53;101949.48;5248342;56;1136924;-75
2022/05/08 23:57:34;;;;;;;15.03;8.97;;;;;;;10.95;71.31;101943.97;5240208;56;1141395;-74
